Southern Lily — 9VJK4 — position and weather

sailwx.info

Track history (hours):
 
Tides and Currents Weather Stations Pressure Air Temp Water Temp Dewpoint Dewpoint Depression Visibility Wind Speed Wind Dir Waves Ship Positions

Southern Lily

Last reported at 2017-Feb-23 14:12 UTC. Time now 2017-Feb-27 06:48 UTC.
Position S 36°18' E 174°58'.

Length 146 m; draft 8.1 m.

Type: Ship. MMSI: 565050000.

Date/timePositionNaut miles runAvg speedWind from/ knotsBaromVisibWave heightAir tempDewpointWater temp
2017-Feb-23 14:12S 36°18' E 174°58'5 7.9
2017-Feb-23 13:33S 36°23' E 174°59'8 7.7
2017-Feb-23 12:33S 36°31' E 174°59'8 7.5
2017-Feb-23 11:33S 36°38' E 174°56'8 8.0
2017-Feb-23 10:33S 36°45' E 174°50'6 6.2
2017-Feb-23 09:32S 36°51' E 174°47'0 0.1
2017-Feb-23 08:28S 36°51' E 174°47'0 0.0
2017-Feb-23 07:28S 36°51' E 174°47'0 0.0
2017-Feb-23 06:16S 36°51' E 174°47'0 0.0
2017-Feb-23 05:28S 36°51' E 174°47'0 0.0
2017-Feb-23 04:28S 36°51' E 174°47'0 0.0
2017-Feb-23 03:28S 36°51' E 174°47'0 0.0
2017-Feb-23 02:28S 36°51' E 174°47'0 0.0
2017-Feb-23 01:28S 36°51' E 174°47'0 0.0
2017-Feb-23 00:28S 36°51' E 174°47'0 0.0
2017-Feb-22 23:28S 36°51' E 174°47'0 0.0
2017-Feb-22 22:28S 36°51' E 174°47'0 0.0
2017-Feb-22 21:28S 36°51' E 174°47'0 0.0
2017-Feb-22 20:28S 36°51' E 174°47'0 0.0
2017-Feb-22 19:28S 36°51' E 174°47'0 0.0
2017-Feb-22 18:28S 36°51' E 174°47'0 0.0
2017-Feb-22 17:16S 36°51' E 174°47'0 0.0
2017-Feb-22 16:28S 36°51' E 174°47'0 0.0
2017-Feb-22 15:28S 36°51' E 174°47'0 0.0
2017-Feb-22 14:28S 36°51' E 174°47'0 0.0
2017-Feb-22 13:28S 36°51' E 174°47'0 0.0
2017-Feb-22 12:28S 36°51' E 174°47'0 0.0
2017-Feb-22 11:28S 36°51' E 174°47'0 0.0
2017-Feb-22 10:33S 36°51' E 174°47'0 0.0
2017-Feb-22 09:33S 36°51' E 174°47'0 0.0
2017-Feb-22 08:33S 36°51' E 174°47'0 0.0
2017-Feb-22 07:33S 36°51' E 174°47'0 0.0
2017-Feb-22 06:27S 36°51' E 174°47'0 0.0
2017-Feb-22 05:33S 36°51' E 174°47'0 0.0
2017-Feb-22 04:33S 36°51' E 174°47'0 0.0
2017-Feb-22 03:33S 36°51' E 174°47'0 0.0
2017-Feb-22 02:33S 36°51' E 174°47'0 0.0
2017-Feb-22 01:09S 36°51' E 174°47'0 0.0
2017-Feb-22 00:27S 36°51' E 174°47'0 0.0
2017-Feb-21 23:33S 36°51' E 174°47'0 0.0
2017-Feb-21 22:33S 36°51' E 174°47'0 0.0
2017-Feb-21 21:33S 36°51' E 174°47'0 0.0
2017-Feb-21 20:31S 36°51' E 174°47'0 0.0
2017-Feb-21 19:31S 36°51' E 174°47'0 0.0
2017-Feb-21 18:31S 36°51' E 174°47'0 0.0
2017-Feb-21 17:29S 36°51' E 174°47'4 4.8
2017-Feb-21 16:33S 36°46' E 174°49'10 9.5
2017-Feb-21 15:33S 36°39' E 174°56'1312.9
2017-Feb-21 14:33S 36°26' E 174°59'1312.7
2017-Feb-21 13:33S 36°13' E 174°57'  
Track history (hours):
 
Tides and Currents Weather Stations Pressure Air Temp Water Temp Dewpoint Dewpoint Depression Visibility Wind Speed Wind Dir Waves Ship Positions

Southern Lily

Last reported at 2017-Feb-23 14:12 UTC. Time now 2017-Feb-27 06:48 UTC.
Position S 36°18' E 174°58'.

Length 146 m; draft 8.1 m.

Type: Ship. MMSI: 565050000.

Date/timePositionNaut miles runAvg speedWind from/ knotsBaromVisibWave heightAir tempDewpointWater temp
2017-Feb-23 14:12S 36°18' E 174°58'5 7.9
2017-Feb-23 13:33S 36°23' E 174°59'8 7.7
2017-Feb-23 12:33S 36°31' E 174°59'8 7.5
2017-Feb-23 11:33S 36°38' E 174°56'8 8.0
2017-Feb-23 10:33S 36°45' E 174°50'6 6.2
2017-Feb-23 09:32S 36°51' E 174°47'0 0.1
2017-Feb-23 08:28S 36°51' E 174°47'0 0.0
2017-Feb-23 07:28S 36°51' E 174°47'0 0.0
2017-Feb-23 06:16S 36°51' E 174°47'0 0.0
2017-Feb-23 05:28S 36°51' E 174°47'0 0.0
2017-Feb-23 04:28S 36°51' E 174°47'0 0.0
2017-Feb-23 03:28S 36°51' E 174°47'0 0.0
2017-Feb-23 02:28S 36°51' E 174°47'0 0.0
2017-Feb-23 01:28S 36°51' E 174°47'0 0.0
2017-Feb-23 00:28S 36°51' E 174°47'0 0.0
2017-Feb-22 23:28S 36°51' E 174°47'0 0.0
2017-Feb-22 22:28S 36°51' E 174°47'0 0.0
2017-Feb-22 21:28S 36°51' E 174°47'0 0.0
2017-Feb-22 20:28S 36°51' E 174°47'0 0.0
2017-Feb-22 19:28S 36°51' E 174°47'0 0.0
2017-Feb-22 18:28S 36°51' E 174°47'0 0.0
2017-Feb-22 17:16S 36°51' E 174°47'0 0.0
2017-Feb-22 16:28S 36°51' E 174°47'0 0.0
2017-Feb-22 15:28S 36°51' E 174°47'0 0.0
2017-Feb-22 14:28S 36°51' E 174°47'0 0.0
2017-Feb-22 13:28S 36°51' E 174°47'0 0.0
2017-Feb-22 12:28S 36°51' E 174°47'0 0.0
2017-Feb-22 11:28S 36°51' E 174°47'0 0.0
2017-Feb-22 10:33S 36°51' E 174°47'0 0.0
2017-Feb-22 09:33S 36°51' E 174°47'0 0.0
2017-Feb-22 08:33S 36°51' E 174°47'0 0.0
2017-Feb-22 07:33S 36°51' E 174°47'0 0.0
2017-Feb-22 06:27S 36°51' E 174°47'0 0.0
2017-Feb-22 05:33S 36°51' E 174°47'0 0.0
2017-Feb-22 04:33S 36°51' E 174°47'0 0.0
2017-Feb-22 03:33S 36°51' E 174°47'0 0.0
2017-Feb-22 02:33S 36°51' E 174°47'0 0.0
2017-Feb-22 01:09S 36°51' E 174°47'0 0.0
2017-Feb-22 00:27S 36°51' E 174°47'0 0.0
2017-Feb-21 23:33S 36°51' E 174°47'0 0.0
2017-Feb-21 22:33S 36°51' E 174°47'0 0.0
2017-Feb-21 21:33S 36°51' E 174°47'0 0.0
2017-Feb-21 20:31S 36°51' E 174°47'0 0.0
2017-Feb-21 19:31S 36°51' E 174°47'0 0.0
2017-Feb-21 18:31S 36°51' E 174°47'0 0.0
2017-Feb-21 17:29S 36°51' E 174°47'4 4.8
2017-Feb-21 16:33S 36°46' E 174°49'10 9.5
2017-Feb-21 15:33S 36°39' E 174°56'1312.9
2017-Feb-21 14:33S 36°26' E 174°59'1312.7
2017-Feb-21 13:33S 36°13' E 174°57'  

Dump ship's entire track history